createdAt,value
2023-01-09T00:00:59.210Z,46.96
2023-01-09T00:03:25.946Z,46.62
2023-01-09T00:06:11.538Z,46.96
2023-01-09T00:08:38.371Z,47.99
2023-01-09T00:11:05.850Z,48.91
2023-01-09T00:13:32.632Z,48.49
2023-01-09T00:15:59.868Z,50.23
2023-01-09T00:18:27.218Z,48.88
2023-01-09T00:20:54.109Z,47.54
2023-01-09T00:23:20.853Z,50.10
2023-01-09T00:25:47.522Z,47.98
2023-01-09T00:28:14.372Z,47.59
2023-01-09T00:30:41.084Z,47.03
2023-01-09T00:33:07.861Z,46.91
2023-01-09T00:35:34.662Z,46.54
2023-01-09T00:38:03.593Z,46.76
2023-01-09T00:40:30.348Z,46.06
2023-01-09T00:42:57.916Z,47.86
2023-01-09T00:45:29.150Z,48.22
2023-01-09T00:48:07.165Z,47.29
2023-01-09T00:50:35.545Z,47.50
2023-01-09T00:53:12.566Z,47.27
2023-01-09T00:55:40.028Z,47.28
2023-01-09T00:58:07.167Z,46.72
2023-01-09T01:00:33.993Z,47.24
2023-01-09T01:03:01.111Z,47.78
2023-01-09T01:05:46.511Z,49.40
2023-01-09T01:08:17.555Z,50.50
2023-01-09T01:10:45.641Z,51.09
2023-01-09T01:13:12.942Z,50.34
2023-01-09T01:15:40.924Z,49.66
2023-01-09T01:18:08.150Z,51.45
2023-01-09T01:20:34.937Z,52.13
2023-01-09T01:23:01.705Z,51.39
2023-01-09T01:25:28.480Z,50.32
2023-01-09T01:27:55.320Z,51.15
2023-01-09T01:30:21.973Z,49.95
2023-01-09T01:32:48.828Z,49.29
2023-01-09T01:35:15.571Z,48.66
2023-01-09T01:37:42.592Z,49.04
2023-01-09T01:40:11.068Z,48.97
2023-01-09T01:42:37.769Z,48.73
2023-01-09T01:45:09.521Z,48.37
2023-01-09T01:47:39.326Z,48.38
2023-01-09T01:50:15.558Z,48.85
2023-01-09T01:52:47.786Z,48.30
2023-01-09T01:55:17.215Z,48.51
2023-01-09T01:57:47.924Z,48.70
2023-01-09T02:00:15.477Z,48.98
2023-01-09T02:02:43.711Z,49.77
2023-01-09T02:05:11.599Z,51.50
2023-01-09T02:07:38.378Z,49.94
2023-01-09T02:10:05.950Z,48.34
2023-01-09T02:12:33.709Z,48.17
2023-01-09T02:15:06.129Z,47.95
2023-01-09T02:18:03.135Z,47.99
2023-01-09T02:20:51.266Z,47.76
2023-01-09T02:23:55.451Z,48.20
2023-01-09T02:26:34.889Z,47.80
2023-01-09T02:29:23.013Z,48.06
2023-01-09T02:31:53.485Z,48.29
2023-01-09T02:34:57.540Z,47.53
2023-01-09T02:37:59.814Z,48.27
2023-01-09T02:40:39.406Z,47.85
2023-01-09T02:43:08.276Z,47.47
2023-01-09T02:45:35.126Z,48.28
2023-01-09T02:48:01.875Z,47.63
2023-01-09T02:51:02.713Z,48.13
2023-01-09T02:54:01.058Z,47.86
2023-01-09T02:56:55.908Z,47.07
2023-01-09T03:00:00.910Z,46.85
2023-01-09T03:02:44.384Z,46.99
2023-01-09T03:05:29.843Z,47.55
2023-01-09T03:08:00.101Z,49.64
2023-01-09T03:10:41.923Z,48.22
2023-01-09T03:13:14.303Z,49.77
2023-01-09T03:15:44.424Z,48.89
2023-01-09T03:18:13.920Z,48.62
2023-01-09T03:20:41.241Z,48.63
2023-01-09T03:23:08.858Z,48.36
2023-01-09T03:25:35.730Z,46.92
2023-01-09T03:28:05.941Z,47.15
2023-01-09T03:30:34.757Z,47.16
2023-01-09T03:33:01.787Z,47.58
2023-01-09T03:35:28.952Z,47.47
2023-01-09T03:37:55.583Z,47.21
2023-01-09T03:40:22.581Z,47.22
2023-01-09T03:42:49.439Z,47.18
2023-01-09T03:45:16.424Z,49.24
2023-01-09T03:47:43.235Z,48.74
2023-01-09T03:50:10.838Z,47.32
2023-01-09T03:52:37.592Z,46.98
2023-01-09T03:55:04.750Z,46.74
2023-01-09T03:57:31.524Z,46.73
2023-01-09T03:59:58.302Z,46.81
2023-01-09T04:02:25.176Z,45.72
2023-01-09T04:04:51.888Z,46.23
2023-01-09T04:07:18.660Z,46.40
2023-01-09T04:09:45.352Z,45.88
2023-01-09T04:12:12.014Z,46.50
2023-01-09T04:14:38.721Z,46.95
2023-01-09T04:17:05.551Z,47.00
2023-01-09T04:19:32.192Z,47.06
2023-01-09T04:21:59.005Z,46.62
2023-01-09T04:24:25.727Z,46.91
2023-01-09T04:26:52.386Z,48.21
2023-01-09T04:29:19.158Z,47.34
2023-01-09T04:31:45.959Z,47.67
2023-01-09T04:34:12.828Z,48.71
2023-01-09T04:36:40.178Z,50.65
2023-01-09T04:39:07.075Z,48.91
2023-01-09T04:41:48.925Z,48.99
2023-01-09T04:44:20.976Z,48.35
2023-01-09T04:46:47.878Z,47.78
2023-01-09T04:49:15.256Z,48.56
2023-01-09T04:51:43.123Z,49.63
2023-01-09T04:54:09.996Z,49.64
2023-01-09T04:56:37.394Z,48.46
2023-01-09T04:59:05.892Z,48.47
2023-01-09T05:01:33.950Z,48.84
2023-01-09T05:04:01.173Z,51.15
2023-01-09T05:06:28.285Z,49.73
2023-01-09T05:08:56.624Z,51.46
2023-01-09T05:11:25.493Z,49.50
2023-01-09T05:13:53.296Z,50.55
2023-01-09T05:16:20.681Z,49.71
2023-01-09T05:18:47.719Z,48.82
2023-01-09T05:21:14.757Z,48.76
2023-01-09T05:23:41.499Z,48.00
2023-01-09T05:26:08.249Z,48.01
2023-01-09T05:28:34.878Z,48.59
2023-01-09T05:31:01.591Z,48.59
2023-01-09T05:33:28.425Z,49.24
2023-01-09T05:35:55.166Z,50.20
2023-01-09T05:38:22.164Z,50.71
2023-01-09T05:40:49.011Z,50.28
2023-01-09T05:43:15.698Z,49.35
2023-01-09T05:45:43.279Z,50.33
2023-01-09T05:48:11.121Z,49.10
2023-01-09T05:50:37.904Z,49.91
2023-01-09T05:53:06.653Z,49.03
2023-01-09T05:55:34.079Z,48.70
2023-01-09T05:58:01.197Z,48.57
2023-01-09T06:00:28.046Z,47.93
2023-01-09T06:02:54.963Z,48.49
2023-01-09T06:05:21.850Z,48.66
2023-01-09T06:07:48.686Z,49.20
2023-01-09T06:10:15.848Z,48.91
2023-01-09T06:12:49.281Z,50.04
2023-01-09T06:15:16.721Z,50.67
2023-01-09T06:17:43.765Z,49.38
2023-01-09T06:20:11.927Z,50.82
2023-01-09T06:22:38.834Z,49.55
2023-01-09T06:25:06.297Z,52.90
2023-01-09T06:27:33.050Z,50.10
2023-01-09T06:29:59.870Z,49.48
2023-01-09T06:32:26.683Z,48.90
2023-01-09T06:34:53.481Z,48.50
2023-01-09T06:37:20.236Z,48.21
2023-01-09T06:39:47.288Z,47.56
2023-01-09T06:42:13.984Z,47.86
2023-01-09T06:44:40.762Z,47.16
2023-01-09T06:47:07.785Z,47.16
2023-01-09T06:49:34.642Z,46.71
2023-01-09T06:52:05.684Z,47.02
2023-01-09T06:54:32.460Z,46.83
2023-01-09T06:56:59.283Z,47.26
2023-01-09T06:59:26.302Z,46.99
2023-01-09T07:01:53.481Z,48.15
2023-01-09T07:04:22.129Z,47.20
2023-01-09T07:06:49.945Z,48.06
2023-01-09T07:09:16.647Z,47.21
2023-01-09T07:11:43.527Z,47.67
2023-01-09T07:14:10.319Z,47.92
2023-01-09T07:16:37.432Z,47.88
2023-01-09T07:19:04.213Z,47.48
2023-01-09T07:21:32.886Z,47.00
2023-01-09T07:23:59.882Z,46.91
2023-01-09T07:26:26.662Z,47.43
2023-01-09T07:28:54.631Z,46.84
2023-01-09T07:31:21.481Z,47.59
2023-01-09T07:33:48.302Z,47.34
2023-01-09T07:36:15.071Z,48.90
2023-01-09T07:38:43.007Z,49.03
2023-01-09T07:41:09.914Z,47.89
2023-01-09T07:43:38.143Z,47.70
2023-01-09T07:46:05.543Z,47.29
2023-01-09T07:48:32.671Z,46.26
2023-01-09T07:50:59.820Z,47.72
2023-01-09T07:53:26.655Z,48.22
2023-01-09T07:55:53.580Z,47.79
2023-01-09T07:58:20.296Z,46.42
2023-01-09T08:00:47.105Z,46.48
2023-01-09T08:03:13.844Z,46.00
2023-01-09T08:05:40.680Z,45.76
2023-01-09T08:08:07.583Z,46.06
2023-01-09T08:10:34.554Z,45.26
2023-01-09T08:13:01.239Z,45.48
2023-01-09T08:15:28.028Z,45.19
2023-01-09T08:17:54.891Z,45.18
2023-01-09T08:20:21.705Z,45.06
2023-01-09T08:22:53.559Z,44.76
2023-01-09T08:25:21.055Z,45.54
2023-01-09T08:27:48.308Z,44.62
2023-01-09T08:30:15.772Z,45.71
2023-01-09T08:32:43.047Z,45.02
2023-01-09T08:35:10.877Z,44.49
2023-01-09T08:37:38.606Z,45.40
2023-01-09T08:40:05.685Z,44.66
2023-01-09T08:42:51.037Z,44.36
2023-01-09T08:45:36.398Z,45.04
2023-01-09T08:48:03.471Z,45.97
2023-01-09T08:50:30.140Z,45.10
2023-01-09T08:52:58.104Z,44.92
2023-01-09T08:55:25.080Z,44.37
2023-01-09T08:57:52.976Z,44.00
2023-01-09T09:00:21.847Z,42.95
2023-01-09T09:02:57.250Z,41.98
2023-01-09T09:05:25.778Z,43.21
2023-01-09T09:07:56.337Z,42.32
2023-01-09T09:10:26.083Z,42.31
2023-01-09T09:12:55.695Z,42.45
2023-01-09T09:15:26.604Z,42.23
2023-01-09T09:18:02.118Z,42.67
2023-01-09T09:20:34.300Z,42.37
2023-01-09T09:23:01.143Z,41.99
2023-01-09T09:25:28.136Z,41.09
2023-01-09T09:27:57.607Z,41.40
2023-01-09T09:30:24.817Z,41.37
2023-01-09T09:32:51.512Z,40.59
2023-01-09T09:35:19.185Z,41.00
2023-01-09T09:37:55.194Z,41.29
2023-01-09T09:40:35.217Z,40.60
2023-01-09T09:43:43.405Z,39.70
2023-01-09T09:47:06.702Z,39.05
2023-01-09T09:50:27.940Z,40.10
2023-01-09T09:53:01.297Z,39.26
2023-01-09T09:55:33.076Z,39.84
2023-01-09T09:58:06.574Z,39.46
2023-01-09T10:00:33.653Z,39.55
2023-01-09T10:03:06.130Z,40.60
2023-01-09T10:05:40.730Z,39.22
2023-01-09T10:08:29.625Z,38.61
2023-01-09T10:10:57.085Z,38.58
2023-01-09T10:13:43.642Z,38.30
2023-01-09T10:16:16.515Z,37.85
2023-01-09T10:18:55.198Z,38.62
2023-01-09T10:21:45.556Z,38.13
2023-01-09T10:24:33.850Z,38.31
2023-01-09T10:27:09.947Z,38.06
2023-01-09T10:29:50.876Z,38.62
2023-01-09T10:32:33.398Z,37.27
2023-01-09T10:35:00.229Z,37.57
2023-01-09T10:37:37.139Z,38.53
2023-01-09T10:40:19.434Z,37.77
2023-01-09T10:42:47.497Z,37.04
2023-01-09T10:45:24.184Z,37.76
2023-01-09T10:47:53.812Z,37.60
2023-01-09T10:50:28.047Z,37.44
2023-01-09T10:52:56.491Z,37.17
2023-01-09T10:55:40.890Z,38.03
2023-01-09T10:58:13.572Z,37.81
2023-01-09T11:00:41.372Z,37.57
2023-01-09T11:03:13.922Z,37.14
2023-01-09T11:05:41.578Z,36.83
2023-01-09T11:08:15.825Z,37.16
2023-01-09T11:10:51.641Z,37.11
2023-01-09T11:13:29.450Z,36.53
2023-01-09T11:16:06.862Z,37.03
2023-01-09T11:18:47.918Z,36.76
2023-01-09T11:21:32.886Z,37.19
2023-01-09T11:24:21.510Z,37.44
2023-01-09T11:26:50.738Z,37.60
2023-01-09T11:29:24.563Z,37.84
2023-01-09T11:31:54.546Z,37.25
2023-01-09T11:34:24.850Z,38.10
2023-01-09T11:36:53.980Z,39.05
2023-01-09T11:39:25.293Z,38.06
2023-01-09T11:42:00.118Z,38.53
2023-01-09T11:44:28.987Z,39.08
2023-01-09T11:46:55.801Z,38.94
2023-01-09T11:49:25.953Z,39.76
2023-01-09T11:52:19.617Z,39.47
2023-01-09T11:55:03.000Z,39.35
2023-01-09T11:57:30.613Z,38.80
2023-01-09T12:00:01.851Z,39.52
2023-01-09T12:02:56.186Z,39.03
2023-01-09T12:05:25.735Z,39.33
2023-01-09T12:07:55.376Z,38.51
2023-01-09T12:10:47.128Z,38.33
2023-01-09T12:13:42.634Z,37.48
2023-01-09T12:16:22.558Z,37.23
2023-01-09T12:19:26.876Z,37.30
2023-01-09T12:22:01.309Z,37.67
2023-01-09T12:24:33.967Z,37.63
2023-01-09T12:27:16.604Z,36.42
2023-01-09T12:29:50.095Z,36.30
2023-01-09T12:32:48.080Z,35.23
2023-01-09T12:35:36.538Z,34.19
2023-01-09T12:38:15.228Z,33.24
2023-01-09T12:40:58.879Z,31.85
2023-01-09T12:43:44.707Z,32.31
2023-01-09T12:46:23.302Z,33.76
2023-01-09T12:49:14.890Z,35.54
2023-01-09T12:51:48.348Z,35.27
2023-01-09T12:54:42.995Z,35.67
2023-01-09T12:57:20.988Z,35.66
2023-01-09T13:00:25.942Z,35.57
2023-01-09T13:03:31.612Z,36.02
2023-01-09T13:05:58.736Z,36.25
2023-01-09T13:08:55.085Z,36.94
2023-01-09T13:11:31.911Z,37.49
2023-01-09T13:14:04.597Z,37.57
2023-01-09T13:16:36.274Z,37.51
2023-01-09T13:19:22.813Z,37.92
2023-01-09T13:21:50.314Z,37.44
2023-01-09T13:24:23.832Z,38.28
2023-01-09T13:26:56.523Z,38.78
2023-01-09T13:29:30.580Z,39.38
2023-01-09T13:32:12.521Z,39.35
2023-01-09T13:34:40.933Z,39.23
2023-01-09T13:37:25.060Z,39.53
2023-01-09T13:40:01.006Z,39.46
2023-01-09T13:42:46.480Z,39.44
2023-01-09T13:45:28.807Z,39.33
2023-01-09T13:48:19.142Z,39.95
2023-01-09T13:50:47.574Z,39.97
2023-01-09T13:53:20.306Z,39.99
2023-01-09T13:56:14.547Z,40.82
2023-01-09T13:58:59.105Z,40.68
2023-01-09T14:01:35.623Z,41.00
2023-01-09T14:04:21.398Z,41.10
2023-01-09T14:07:22.223Z,42.08
2023-01-09T14:09:54.410Z,41.20
2023-01-09T14:12:22.486Z,41.95
2023-01-09T14:14:51.523Z,41.26
2023-01-09T14:17:32.330Z,41.30
2023-01-09T14:20:03.228Z,41.63
2023-01-09T14:22:45.630Z,41.77
2023-01-09T14:25:26.534Z,41.88
2023-01-09T14:27:59.649Z,41.53
2023-01-09T14:30:26.433Z,41.54
2023-01-09T14:33:28.046Z,41.20
2023-01-09T14:36:12.317Z,41.64
2023-01-09T14:39:00.118Z,41.56
2023-01-09T14:41:48.501Z,41.60
2023-01-09T14:44:26.235Z,41.66
2023-01-09T14:46:54.392Z,42.19
2023-01-09T14:49:44.570Z,43.61
2023-01-09T14:52:51.820Z,42.83
2023-01-09T14:55:40.050Z,43.34
2023-01-09T14:58:21.302Z,42.66
2023-01-09T15:00:54.431Z,42.40
2023-01-09T15:03:23.285Z,42.62
2023-01-09T15:05:52.720Z,42.35
2023-01-09T15:08:23.758Z,42.42
2023-01-09T15:10:53.559Z,43.80
2023-01-09T15:13:36.650Z,44.04
2023-01-09T15:16:06.576Z,44.05
2023-01-09T15:18:42.079Z,43.33
2023-01-09T15:21:19.282Z,44.05
2023-01-09T15:23:46.158Z,44.42
2023-01-09T15:26:30.411Z,43.87
2023-01-09T15:29:15.496Z,44.15
2023-01-09T15:31:45.837Z,45.31
2023-01-09T15:34:19.152Z,45.61
2023-01-09T15:36:49.151Z,44.78
2023-01-09T15:39:22.586Z,44.69
2023-01-09T15:42:08.084Z,44.08
2023-01-09T15:44:39.049Z,43.99
2023-01-09T15:47:11.418Z,44.74
2023-01-09T15:49:38.370Z,44.37
2023-01-09T15:52:07.137Z,44.00
2023-01-09T15:54:35.280Z,44.08
2023-01-09T15:57:26.598Z,43.58
2023-01-09T16:00:17.217Z,43.78
2023-01-09T16:03:04.150Z,43.68
2023-01-09T16:05:33.049Z,44.49
2023-01-09T16:08:01.017Z,43.98
2023-01-09T16:10:34.533Z,43.72
2023-01-09T16:13:02.495Z,44.08
2023-01-09T16:15:34.712Z,44.89
2023-01-09T16:18:22.411Z,45.33
2023-01-09T16:20:49.602Z,45.14
2023-01-09T16:23:33.186Z,45.45
2023-01-09T16:26:12.603Z,46.29
2023-01-09T16:28:42.998Z,45.10
2023-01-09T16:31:29.386Z,45.14
2023-01-09T16:34:07.000Z,45.16
2023-01-09T16:36:37.423Z,44.93
2023-01-09T16:39:04.289Z,44.90
2023-01-09T16:41:50.046Z,45.07
2023-01-09T16:44:19.203Z,45.24
2023-01-09T16:46:46.290Z,45.30
2023-01-09T16:49:15.918Z,45.55
2023-01-09T16:51:42.706Z,45.63
2023-01-09T16:54:09.587Z,46.71
2023-01-09T16:56:38.602Z,46.11
2023-01-09T16:59:05.539Z,46.74
2023-01-09T17:01:32.416Z,46.13
2023-01-09T17:03:59.193Z,46.68
2023-01-09T17:06:31.209Z,46.10
2023-01-09T17:08:59.067Z,46.00
2023-01-09T17:11:32.024Z,46.25
2023-01-09T17:13:59.578Z,46.56
2023-01-09T17:16:26.997Z,48.22
2023-01-09T17:18:53.876Z,46.78
2023-01-09T17:21:26.958Z,46.25
2023-01-09T17:24:14.206Z,46.27
2023-01-09T17:27:03.822Z,46.99
2023-01-09T17:29:30.810Z,47.30
2023-01-09T17:31:58.151Z,46.78
2023-01-09T17:34:25.072Z,47.11
2023-01-09T17:36:52.873Z,47.20
2023-01-09T17:39:19.771Z,47.43
2023-01-09T17:41:47.689Z,48.11
2023-01-09T17:44:14.648Z,48.48
2023-01-09T17:46:43.832Z,47.84
2023-01-09T17:49:19.095Z,47.95
2023-01-09T17:51:46.021Z,47.58
2023-01-09T17:54:13.107Z,47.35
2023-01-09T17:56:44.744Z,47.16
2023-01-09T17:59:13.355Z,47.04
2023-01-09T18:01:41.633Z,47.31
2023-01-09T18:04:08.889Z,47.15
2023-01-09T18:06:38.576Z,48.20
2023-01-09T18:09:06.434Z,47.94
2023-01-09T18:11:33.405Z,48.17
2023-01-09T18:14:00.189Z,48.32
2023-01-09T18:16:28.135Z,48.38
2023-01-09T18:18:57.916Z,48.45
2023-01-09T18:21:26.836Z,47.90
2023-01-09T18:23:53.589Z,47.97
2023-01-09T18:26:21.539Z,49.24
2023-01-09T18:28:51.138Z,48.40
2023-01-09T18:31:22.679Z,47.64
2023-01-09T18:33:54.639Z,47.96
2023-01-09T18:36:24.387Z,48.35
2023-01-09T18:38:53.479Z,48.19
2023-01-09T18:41:21.710Z,48.04
2023-01-09T18:43:53.263Z,47.92
2023-01-09T18:46:24.196Z,48.97
2023-01-09T18:48:59.408Z,48.93
2023-01-09T18:51:28.269Z,48.56
2023-01-09T18:53:55.778Z,49.99
2023-01-09T18:56:23.342Z,50.90
2023-01-09T18:58:53.716Z,50.04
2023-01-09T19:01:20.649Z,50.17
2023-01-09T19:03:48.098Z,50.90
2023-01-09T19:06:14.960Z,50.32
2023-01-09T19:08:42.041Z,50.27
2023-01-09T19:11:08.937Z,50.19
2023-01-09T19:13:37.248Z,51.08
2023-01-09T19:16:06.584Z,50.45
2023-01-09T19:18:35.369Z,51.76
2023-01-09T19:21:02.355Z,50.45
2023-01-09T19:23:29.472Z,50.19
2023-01-09T19:25:57.719Z,49.95
2023-01-09T19:28:24.746Z,49.99
2023-01-09T19:30:56.898Z,49.74
2023-01-09T19:33:25.231Z,49.75
2023-01-09T19:35:53.095Z,49.67
2023-01-09T19:38:22.590Z,49.94
2023-01-09T19:40:49.483Z,49.88
2023-01-09T19:43:26.174Z,48.95
2023-01-09T19:45:56.477Z,49.44
2023-01-09T19:48:24.248Z,48.95
2023-01-09T19:50:50.959Z,49.21
2023-01-09T19:53:18.439Z,48.45
2023-01-09T19:55:45.204Z,48.87
2023-01-09T19:58:11.989Z,48.72
2023-01-09T20:00:39.342Z,48.82
2023-01-09T20:03:06.183Z,48.95
2023-01-09T20:05:33.288Z,49.04
2023-01-09T20:08:00.126Z,48.97
2023-01-09T20:10:26.825Z,49.84
2023-01-09T20:12:53.684Z,49.60
2023-01-09T20:15:20.492Z,49.41
2023-01-09T20:17:47.348Z,50.17
2023-01-09T20:20:15.939Z,50.03
2023-01-09T20:22:42.623Z,50.58
2023-01-09T20:25:10.449Z,49.57
2023-01-09T20:27:37.319Z,50.11
2023-01-09T20:30:04.707Z,50.28
2023-01-09T20:32:32.443Z,50.40
2023-01-09T20:34:59.387Z,49.33
2023-01-09T20:37:26.237Z,49.68
2023-01-09T20:39:53.338Z,49.59
2023-01-09T20:42:20.287Z,50.23
2023-01-09T20:44:47.309Z,50.36
2023-01-09T20:47:14.182Z,50.21
2023-01-09T20:49:40.847Z,49.36
2023-01-09T20:52:07.689Z,49.25
2023-01-09T20:54:35.668Z,49.16
2023-01-09T20:57:02.403Z,50.15
2023-01-09T20:59:29.355Z,49.60
2023-01-09T21:01:56.020Z,49.05
2023-01-09T21:04:22.993Z,49.32
2023-01-09T21:06:50.614Z,50.03
2023-01-09T21:09:17.738Z,51.29
2023-01-09T21:11:44.520Z,49.19
2023-01-09T21:14:11.291Z,49.21
2023-01-09T21:16:38.201Z,49.86
2023-01-09T21:19:04.996Z,50.18
2023-01-09T21:21:31.854Z,49.45
2023-01-09T21:24:00.588Z,50.38
2023-01-09T21:26:30.441Z,50.89
2023-01-09T21:28:59.793Z,50.17
2023-01-09T21:31:34.184Z,50.68
2023-01-09T21:34:07.515Z,51.25
2023-01-09T21:36:35.435Z,50.54
2023-01-09T21:39:07.582Z,51.10
2023-01-09T21:41:53.788Z,50.31
2023-01-09T21:44:39.086Z,51.56
2023-01-09T21:47:05.916Z,52.80
2023-01-09T21:49:35.045Z,51.19
2023-01-09T21:52:06.081Z,50.37
2023-01-09T21:54:33.794Z,50.47
2023-01-09T21:57:01.568Z,51.33
2023-01-09T21:59:29.141Z,50.83
2023-01-09T22:01:56.242Z,51.75
2023-01-09T22:04:25.458Z,50.82
2023-01-09T22:06:52.269Z,49.86
2023-01-09T22:09:19.094Z,49.92
2023-01-09T22:11:45.881Z,51.59
2023-01-09T22:14:14.783Z,51.20
2023-01-09T22:16:43.592Z,50.05
2023-01-09T22:19:12.374Z,49.92
2023-01-09T22:21:39.350Z,49.83
2023-01-09T22:24:06.579Z,50.45
2023-01-09T22:26:34.104Z,50.52
2023-01-09T22:29:01.043Z,49.82
2023-01-09T22:31:32.877Z,50.14
2023-01-09T22:34:02.316Z,52.05
2023-01-09T22:36:31.045Z,51.26
2023-01-09T22:39:00.194Z,50.59
2023-01-09T22:41:27.866Z,50.51
2023-01-09T22:43:54.632Z,49.45
2023-01-09T22:46:21.621Z,50.47
2023-01-09T22:48:48.437Z,50.86
2023-01-09T22:51:18.548Z,51.53
2023-01-09T22:53:46.063Z,51.47
2023-01-09T22:56:15.296Z,50.62
2023-01-09T22:58:42.257Z,50.20
2023-01-09T23:01:13.144Z,49.94
2023-01-09T23:03:40.322Z,50.63
2023-01-09T23:06:15.293Z,51.61
2023-01-09T23:08:43.176Z,51.84
2023-01-09T23:11:40.104Z,52.53
2023-01-09T23:14:07.051Z,51.68
2023-01-09T23:16:33.824Z,50.28
2023-01-09T23:19:00.921Z,50.35
2023-01-09T23:21:27.747Z,51.17
2023-01-09T23:23:54.470Z,51.96
2023-01-09T23:26:21.270Z,51.14
2023-01-09T23:28:47.957Z,51.04
2023-01-09T23:31:15.643Z,51.11
2023-01-09T23:33:42.509Z,50.98
2023-01-09T23:36:09.647Z,51.28
2023-01-09T23:38:36.372Z,49.98
2023-01-09T23:41:03.106Z,51.39
2023-01-09T23:43:29.979Z,49.83
2023-01-09T23:45:56.743Z,50.68
2023-01-09T23:48:23.604Z,50.81
2023-01-09T23:50:52.305Z,50.33
2023-01-09T23:53:21.446Z,50.65
2023-01-09T23:55:48.882Z,51.71
2023-01-09T23:58:16.770Z,51.90
